KJCT

Details ICAO KJCT
Name KIMBLE CO
Region United States
Timezone America/Chicago (UTC-5.0)
Plans Departing 15
Arriving 15
Stats Elevation 1,749 ft / 533 m (AMSL)
Location 30.511065° -99.762294°
Runways 2
Magnetic Variation 4.902° E
Sunrise 2018-05-28 11:39:51 UTC / 2018-05-28 06:39:51 Local
Sunset 2018-05-29 01:35:45 UTC / 2018-05-28 20:35:45 Local
Advertisement - Login to hide

Runways

ID Width Length Bearing (true) Bearing (mag) Surface Threshold Offset Overrun Length
08 146 ft / 45 m 2,249 ft / 686 m 92.47° 87.57° Grass 0 ft / 0 m 0 ft / 0 m
17 75 ft / 23 m 5,016 ft / 1,529 m 180.24° 175.34° Asphalt 0 ft / 0 m 0 ft / 0 m
26 146 ft / 45 m 2,249 ft / 686 m 272.48° 267.58° Grass 0 ft / 0 m 0 ft / 0 m
35 75 ft / 23 m 5,016 ft / 1,529 m 0.24° 355.34° Asphalt 0 ft / 0 m 0 ft / 0 m

Map

Weather


0- 5 10 15 20 25 30 35+ Temperature / ° C

Clouds and Precipitation
Forecast for 2018-05-28 00:00 UTC. Updated 9 hours ago

Ground ~20,000 ft ~40,000 ft Winds

METAR

Not found

TAF

TAF KJCT 272320Z 2800/2824 16010KT P6SM FEW080

Frequencies

Recorded 119.27 MHz ASOS
Unicom 122.80 MHz CTAF/UNICOM
Warning: Do not use this data for real-world aviation or navigation. No guarantee of current accuracy is given.